Time;durP1;ratioP1;P1;durP2;ratioP2;P2;SDS_P1;SDS_P2;PMS_P1;PMS_P2;Temp;Humidity;BMP_temperature;BMP_pressure;BME280_temperature;BME280_humidity;BME280_pressure;Samples;Min_cycle;Max_cycle;Signal;HPM_P1;HPM_P2
2021/05/12 00:01:12;;;;;;;3.73;3.10;;;;;;;13.66;76.84;96138.59;5092084;28;20246;-70
2021/05/12 00:03:37;;;;;;;3.27;2.97;;;;;;;13.48;76.98;96137.31;5092360;28;20263;-70
2021/05/12 00:06:03;;;;;;;3.10;2.90;;;;;;;13.85;75.97;96131.78;5092977;28;20201;-70
2021/05/12 00:08:29;;;;;;;3.93;3.10;;;;;;;13.70;76.26;96136.38;5092294;28;20210;-69
2021/05/12 00:10:55;;;;;;;3.57;3.27;;;;;;;13.77;76.77;96131.94;5092046;28;20190;-70
2021/05/12 00:13:20;;;;;;;3.60;3.37;;;;;;;13.83;76.10;96139.06;5091678;28;20416;-70
2021/05/12 00:15:46;;;;;;;3.40;3.10;;;;;;;13.39;77.34;96140.28;5074465;28;20214;-70
2021/05/12 00:18:17;;;;;;;4.00;3.70;;;;;;;13.51;77.14;96141.38;5091140;28;20184;-71
2021/05/12 00:20:43;;;;;;;3.80;3.50;;;;;;;13.79;76.17;96148.34;5091394;28;20213;-69
2021/05/12 00:23:12;;;;;;;3.93;3.53;;;;;;;13.55;77.46;96145.25;5093063;28;20478;-71
2021/05/12 00:25:37;;;;;;;4.10;3.37;;;;;;;13.32;78.23;96151.59;5093807;28;20201;-69
2021/05/12 00:28:03;;;;;;;3.33;3.07;;;;;;;13.13;78.41;96150.50;5087607;28;20440;-71
2021/05/12 00:30:29;;;;;;;4.93;3.13;;;;;;;13.14;78.32;96148.66;5092294;28;20196;-71
2021/05/12 00:32:55;;;;;;;3.00;2.67;;;;;;;12.81;78.98;96154.53;5092399;28;20273;-70
2021/05/12 00:35:21;;;;;;;3.20;2.90;;;;;;;13.06;77.74;96155.72;5092029;28;20206;-70
2021/05/12 00:37:47;;;;;;;2.80;2.60;;;;;;;12.85;78.24;96155.78;5095008;28;20194;-70
2021/05/12 00:40:14;;;;;;;2.80;2.60;;;;;;;12.75;78.63;96159.53;5093679;28;20518;-71
2021/05/12 00:42:39;;;;;;;2.60;2.40;;;;;;;12.87;77.96;96156.38;5094415;28;20196;-70
2021/05/12 00:45:06;;;;;;;7.93;2.30;;;;;;;12.60;78.73;96166.75;5075596;28;20445;-70
2021/05/12 00:47:33;;;;;;;7.17;2.47;;;;;;;12.52;78.38;96172.94;5090441;28;20198;-69
2021/05/12 00:50:00;;;;;;;2.20;2.00;;;;;;;12.62;76.98;96166.53;5090579;28;20459;-69
2021/05/12 00:52:25;;;;;;;2.37;2.17;;;;;;;12.63;77.71;96166.34;5090219;28;20439;-70
2021/05/12 00:54:52;;;;;;;5.07;2.10;;;;;;;12.74;76.76;96165.81;5091376;28;20420;-70
2021/05/12 00:57:18;;;;;;;2.93;1.80;;;;;;;12.55;76.35;96169.91;5084780;28;20269;-68
2021/05/12 00:59:45;;;;;;;2.73;2.10;;;;;;;12.42;77.45;96165.38;5089710;28;20896;-71
2021/05/12 01:02:11;;;;;;;4.07;2.03;;;;;;;12.38;77.00;96168.56;5089927;28;20243;-70
2021/05/12 01:04:37;;;;;;;3.87;2.10;;;;;;;12.35;76.88;96174.19;5091058;28;20426;-69
2021/05/12 01:07:04;;;;;;;1.80;1.40;;;;;;;12.40;75.68;96172.63;5090807;28;20550;-69
2021/05/12 01:09:29;;;;;;;5.30;1.97;;;;;;;12.44;76.04;96173.06;5093814;28;20451;-69
2021/05/12 01:11:55;;;;;;;2.93;1.50;;;;;;;12.28;76.23;96176.75;5095818;28;20428;-70
2021/05/12 01:14:21;;;;;;;2.53;1.47;;;;;;;12.40;75.70;96177.88;5085147;28;20525;-69
2021/05/12 01:16:47;;;;;;;1.93;1.30;;;;;;;12.37;75.39;96172.19;5065260;28;20636;-71
2021/05/12 01:19:14;;;;;;;2.80;1.47;;;;;;;12.47;74.78;96179.75;5086209;28;20181;-70
2021/05/12 01:21:40;;;;;;;1.90;1.20;;;;;;;12.45;74.63;96172.06;5090876;28;20427;-70
2021/05/12 01:24:06;;;;;;;3.60;1.57;;;;;;;12.38;74.73;96179.88;5089814;28;20481;-70
2021/05/12 01:26:32;;;;;;;3.43;1.30;;;;;;;12.13;75.54;96185.50;5089891;28;20270;-69
2021/05/12 01:28:58;;;;;;;4.43;1.20;;;;;;;12.37;74.64;96191.38;5085244;28;20459;-69
2021/05/12 01:31:31;;;;;;;2.40;1.40;;;;;;;12.25;74.44;96190.25;5090996;28;20924;-70
2021/05/12 01:33:57;;;;;;;1.30;1.20;;;;;;;12.64;74.19;96189.00;5091031;28;20192;-69
2021/05/12 01:36:23;;;;;;;3.23;1.57;;;;;;;12.34;75.46;96183.91;5090701;28;20509;-69
2021/05/12 01:38:50;;;;;;;2.27;1.20;;;;;;;12.26;75.26;96186.63;5089180;28;20914;-69
2021/05/12 01:41:17;;;;;;;3.73;1.30;;;;;;;12.44;74.63;96186.19;5090778;28;20638;-69
2021/05/12 01:43:43;;;;;;;2.20;1.30;;;;;;;12.33;75.30;96187.53;5090847;28;20456;-69
2021/05/12 01:46:09;;;;;;;1.97;1.33;;;;;;;12.41;74.63;96189.22;5076144;28;20447;-70
2021/05/12 01:48:35;;;;;;;1.77;1.50;;;;;;;12.23;74.91;96187.00;5090872;28;20193;-69
2021/05/12 01:51:02;;;;;;;1.57;1.47;;;;;;;12.24;76.22;96188.63;5090662;28;20980;-70
2021/05/12 01:53:27;;;;;;;1.93;1.60;;;;;;;11.98;75.95;96190.00;5090933;28;20559;-69
2021/05/12 01:55:53;;;;;;;2.90;1.80;;;;;;;12.36;75.30;96192.38;5073651;28;20453;-68
2021/05/12 01:58:20;;;;;;;4.77;1.70;;;;;;;12.38;74.89;96190.38;5089482;28;20216;-71
2021/05/12 02:00:47;;;;;;;2.00;1.77;;;;;;;12.02;75.61;96195.72;5090844;28;20277;-69
2021/05/12 02:03:13;;;;;;;4.13;2.10;;;;;;;11.92;76.43;96186.25;5074295;28;20984;-69
2021/05/12 02:05:40;;;;;;;2.40;2.10;;;;;;;11.94;75.67;96189.53;5090668;28;20435;-69
2021/05/12 02:08:07;;;;;;;4.03;2.00;;;;;;;12.05;75.54;96185.63;5089860;28;20193;-68
2021/05/12 02:10:34;;;;;;;6.90;2.10;;;;;;;12.17;74.93;96187.78;5093299;28;20424;-69
2021/05/12 02:13:00;;;;;;;4.90;2.20;;;;;;;12.14;75.38;96184.50;5096059;28;20911;-69
2021/05/12 02:15:26;;;;;;;3.50;2.47;;;;;;;11.87;75.64;96179.94;5081583;28;20499;-69
2021/05/12 02:17:52;;;;;;;4.40;2.43;;;;;;;12.04;75.37;96173.50;5096504;28;20428;-70
2021/05/12 02:20:22;;;;;;;2.97;1.90;;;;;;;12.24;74.85;96172.88;5096926;28;20496;-70
2021/05/12 02:22:47;;;;;;;2.43;1.93;;;;;;;12.00;76.05;96172.25;5097259;28;20854;-69
2021/05/12 02:25:13;;;;;;;3.07;2.40;;;;;;;12.17;74.80;96182.50;5094154;28;20475;-68
2021/05/12 02:27:39;;;;;;;5.03;2.60;;;;;;;11.98;75.48;96176.88;5086238;28;20230;-70
2021/05/12 02:30:10;;;;;;;3.17;2.27;;;;;;;12.11;74.91;96174.38;5075378;28;20224;-71
2021/05/12 02:32:36;;;;;;;4.60;2.20;;;;;;;11.94;75.54;96176.41;5095104;28;20193;-71
2021/05/12 02:35:02;;;;;;;6.50;2.80;;;;;;;12.03;75.32;96171.88;5093928;28;20416;-69
2021/05/12 02:37:27;;;;;;;2.67;2.37;;;;;;;12.13;75.38;96180.25;5088937;28;20187;-68
2021/05/12 02:39:53;;;;;;;7.73;2.80;;;;;;;12.03;75.62;96177.13;5090869;28;20477;-69
2021/05/12 02:42:20;;;;;;;3.57;2.70;;;;;;;12.23;74.40;96173.88;5094300;28;20186;-71
2021/05/12 02:44:46;;;;;;;4.07;2.50;;;;;;;11.99;75.62;96170.63;5081230;28;20469;-68
2021/05/12 02:47:11;;;;;;;4.00;2.87;;;;;;;12.35;74.01;96176.81;5091750;28;20493;-69
2021/05/12 02:49:38;;;;;;;3.40;2.70;;;;;;;12.52;73.40;96178.19;5091882;28;20201;-70
2021/05/12 02:52:04;;;;;;;3.53;2.60;;;;;;;12.16;74.25;96175.63;5088096;28;20220;-70
2021/05/12 02:54:30;;;;;;;4.13;3.10;;;;;;;12.12;74.19;96172.56;5092466;28;20444;-68
2021/05/12 02:56:56;;;;;;;19.80;12.20;;;;;;;12.05;74.80;96174.31;5093939;28;20499;-70
2021/05/12 02:59:21;;;;;;;8.70;5.27;;;;;;;12.08;74.81;96174.78;5093500;28;20651;-70
2021/05/12 03:01:47;;;;;;;8.27;4.10;;;;;;;12.52;73.06;96177.38;5094216;28;20512;-69
2021/05/12 03:04:13;;;;;;;5.50;3.50;;;;;;;12.38;73.24;96173.81;5093202;28;20581;-69
2021/05/12 03:06:39;;;;;;;8.17;3.53;;;;;;;12.05;74.86;96177.75;5093619;28;20542;-70
2021/05/12 03:09:06;;;;;;;5.67;3.27;;;;;;;12.32;73.92;96179.81;5088909;28;20269;-70
2021/05/12 03:11:32;;;;;;;4.07;3.13;;;;;;;12.28;74.04;96174.13;5093331;28;20496;-68
2021/05/12 03:13:58;;;;;;;5.90;3.83;;;;;;;11.94;75.00;96184.28;5093572;28;20847;-69
2021/05/12 03:16:24;;;;;;;5.83;4.13;;;;;;;12.26;73.66;96186.63;5075051;28;20444;-69
2021/05/12 03:18:49;;;;;;;6.00;3.40;;;;;;;12.03;74.31;96186.84;5093007;28;20178;-69
2021/05/12 03:21:15;;;;;;;5.40;4.00;;;;;;;12.00;74.72;96180.13;5074772;28;20317;-69
2021/05/12 03:23:40;;;;;;;7.03;4.40;;;;;;;11.92;75.26;96180.22;5089680;28;20189;-69
2021/05/12 03:26:06;;;;;;;7.87;4.90;;;;;;;12.04;74.81;96177.94;5079023;28;20296;-68
2021/05/12 03:28:32;;;;;;;14.17;5.63;;;;;;;12.29;73.69;96184.44;5080897;28;20363;-70
2021/05/12 03:30:57;;;;;;;9.83;5.73;;;;;;;12.10;74.90;96188.50;5093265;28;20185;-71
2021/05/12 03:33:23;;;;;;;8.03;5.40;;;;;;;12.02;74.66;96191.25;5077022;28;20183;-69
2021/05/12 03:35:49;;;;;;;11.80;5.27;;;;;;;12.18;74.20;96189.41;5069024;28;20217;-69
2021/05/12 03:38:14;;;;;;;7.30;5.13;;;;;;;12.17;74.33;96191.19;5080304;28;20201;-70
2021/05/12 03:40:40;;;;;;;9.63;6.03;;;;;;;12.45;73.44;96187.81;5072764;28;20206;-71
2021/05/12 03:43:06;;;;;;;10.70;5.97;;;;;;;12.23;74.20;96181.75;5071793;28;20190;-70
2021/05/12 03:45:32;;;;;;;7.97;5.70;;;;;;;12.06;75.00;96183.81;5071777;28;21029;-71
2021/05/12 03:47:58;;;;;;;11.80;6.10;;;;;;;11.96;75.34;96177.03;5071472;28;20207;-69
2021/05/12 03:50:26;;;;;;;17.87;7.80;;;;;;;11.77;76.29;96178.44;5071493;28;20206;-69
2021/05/12 03:52:52;;;;;;;11.47;7.33;;;;;;;11.86;76.10;96181.78;5072707;28;20485;-69
2021/05/12 03:55:18;;;;;;;14.40;7.33;;;;;;;12.03;75.46;96177.13;5071741;28;20433;-69
2021/05/12 03:57:44;;;;;;;9.80;7.37;;;;;;;11.84;76.06;96195.06;5080228;28;20182;-69
2021/05/12 04:00:11;;;;;;;10.57;7.43;;;;;;;12.02;75.03;96183.38;5072037;28;20420;-70
2021/05/12 04:02:37;;;;;;;16.23;8.00;;;;;;;12.02;75.48;96188.63;5071804;28;20515;-70
2021/05/12 04:05:03;;;;;;;10.10;7.20;;;;;;;11.87;75.50;96187.81;5073520;28;20918;-70
2021/05/12 04:07:29;;;;;;;13.63;7.83;;;;;;;11.96;75.60;96186.72;5072760;28;20323;-69
2021/05/12 04:09:54;;;;;;;13.60;7.90;;;;;;;12.00;75.99;96185.38;5072257;28;20551;-71
2021/05/12 04:12:20;;;;;;;10.17;7.00;;;;;;;11.88;75.75;96184.19;5072244;28;20243;-70
2021/05/12 04:14:46;;;;;;;11.53;7.50;;;;;;;12.02;75.80;96180.75;5072034;28;20189;-71
2021/05/12 04:17:11;;;;;;;12.77;8.10;;;;;;;11.80;76.87;96179.88;5072452;28;20285;-70
2021/05/12 04:19:37;;;;;;;22.33;9.20;;;;;;;11.83;76.12;96190.84;5071152;28;20191;-69
2021/05/12 04:22:03;;;;;;;16.23;8.20;;;;;;;12.05;75.54;96183.00;5079690;28;20239;-68
2021/05/12 04:24:29;;;;;;;18.70;8.77;;;;;;;12.08;75.58;96185.28;5072677;28;20194;-69
2021/05/12 04:26:55;;;;;;;11.10;7.63;;;;;;;12.13;74.64;96182.09;5070498;28;20672;-69
2021/05/12 04:29:21;;;;;;;10.60;8.17;;;;;;;12.07;74.93;96188.91;5070529;28;20476;-69
2021/05/12 04:31:46;;;;;;;7.37;6.67;;;;;;;12.29;74.19;96191.53;5071279;28;20566;-71
2021/05/12 04:34:12;;;;;;;14.47;8.17;;;;;;;12.09;74.62;96192.16;5072622;28;20182;-69
2021/05/12 04:36:39;;;;;;;13.90;8.60;;;;;;;12.11;74.65;96198.00;5070155;28;20206;-69
2021/05/12 04:39:05;;;;;;;9.47;7.07;;;;;;;12.29;73.59;96194.16;5070596;28;20182;-69
2021/05/12 04:41:31;;;;;;;10.27;6.87;;;;;;;11.98;75.32;96206.56;5072028;28;20481;-69
2021/05/12 04:43:56;;;;;;;9.23;7.87;;;;;;;11.86;74.55;96196.69;5081509;28;20891;-69
2021/05/12 04:46:23;;;;;;;12.57;7.53;;;;;;;12.11;74.40;96200.63;5073634;28;20981;-69
2021/05/12 04:48:49;;;;;;;10.17;7.80;;;;;;;12.24;73.96;96205.22;5071477;28;20197;-69
2021/05/12 04:51:14;;;;;;;12.60;7.87;;;;;;;11.97;74.76;96201.50;5072035;28;20440;-69
2021/05/12 04:53:40;;;;;;;11.23;8.30;;;;;;;12.10;74.27;96199.00;5079972;28;20178;-70
2021/05/12 04:56:06;;;;;;;9.00;7.13;;;;;;;12.40;73.01;96204.16;5075431;28;20214;-72
2021/05/12 04:58:32;;;;;;;16.03;7.33;;;;;;;12.36;73.71;96213.41;5074073;28;20179;-70
2021/05/12 05:00:58;;;;;;;9.30;7.77;;;;;;;12.54;72.77;96206.91;5073405;28;20431;-71
2021/05/12 05:03:23;;;;;;;9.53;7.07;;;;;;;12.53;71.92;96210.53;5080665;28;20481;-69
2021/05/12 05:05:49;;;;;;;9.63;6.90;;;;;;;12.18;72.97;96221.72;5065734;28;20630;-69
2021/05/12 05:08:14;;;;;;;8.80;6.97;;;;;;;12.28;71.97;96221.41;5077859;28;20869;-70
2021/05/12 05:10:40;;;;;;;9.50;6.40;;;;;;;12.00;72.65;96224.75;5070796;28;20191;-70
2021/05/12 05:13:06;;;;;;;9.83;6.63;;;;;;;12.31;72.49;96221.06;5071369;28;20296;-70
2021/05/12 05:15:32;;;;;;;10.80;6.50;;;;;;;12.21;71.89;96225.81;5073473;28;20238;-70
2021/05/12 05:17:58;;;;;;;8.43;6.03;;;;;;;12.49;71.06;96231.13;5079653;28;20215;-69
2021/05/12 05:20:26;;;;;;;9.63;6.70;;;;;;;12.48;71.44;96239.19;5075597;28;20917;-71
2021/05/12 05:22:52;;;;;;;10.00;6.60;;;;;;;12.69;70.40;96238.34;5075602;28;20511;-70
2021/05/12 05:25:18;;;;;;;10.03;6.80;;;;;;;12.74;70.61;96247.31;5071412;28;20464;-69
2021/05/12 05:27:43;;;;;;;10.10;6.10;;;;;;;12.26;71.53;96240.00;5073544;28;20229;-71
2021/05/12 05:30:10;;;;;;;11.00;6.53;;;;;;;12.67;70.27;96238.56;5071103;28;20236;-70
2021/05/12 05:32:35;;;;;;;9.30;6.23;;;;;;;12.70;70.35;96246.06;5074296;28;20684;-73
2021/05/12 05:35:01;;;;;;;9.77;6.30;;;;;;;12.87;69.53;96246.63;5070187;28;20438;-69
2021/05/12 05:37:26;;;;;;;8.10;6.13;;;;;;;12.98;68.95;96241.84;5058864;28;20187;-71
2021/05/12 05:39:53;;;;;;;9.70;5.90;;;;;;;12.52;70.47;96246.53;5057879;28;20198;-70
2021/05/12 05:42:19;;;;;;;8.50;6.10;;;;;;;12.42;71.30;96248.63;5053877;28;20225;-71
2021/05/12 05:44:45;;;;;;;10.40;6.23;;;;;;;12.77;69.27;96242.66;5058471;28;20775;-69
2021/05/12 05:47:11;;;;;;;8.27;5.43;;;;;;;12.73;69.55;96250.13;5069793;28;20527;-69
2021/05/12 05:49:37;;;;;;;6.53;5.50;;;;;;;12.79;69.15;96241.47;5068045;28;20527;-69
2021/05/12 05:52:03;;;;;;;8.00;5.10;;;;;;;12.93;69.21;96242.41;5071795;28;20638;-69
2021/05/12 05:54:29;;;;;;;6.40;4.77;;;;;;;12.54;69.73;96251.56;5068504;28;20265;-69
2021/05/12 05:56:55;;;;;;;9.73;4.83;;;;;;;12.10;71.47;96245.47;5068240;28;20989;-70
2021/05/12 05:59:20;;;;;;;9.17;5.00;;;;;;;12.56;69.36;96250.38;5067293;28;20273;-69
2021/05/12 06:01:46;;;;;;;4.30;3.90;;;;;;;12.23;70.22;96255.28;5072022;28;20183;-70
2021/05/12 06:04:11;;;;;;;5.20;3.97;;;;;;;12.42;69.92;96252.09;5070590;28;20501;-69
2021/05/12 06:06:37;;;;;;;5.57;4.00;;;;;;;12.20;70.95;96256.50;5067559;28;20210;-70
2021/05/12 06:09:03;;;;;;;9.97;4.67;;;;;;;12.42;69.58;96259.97;5073721;28;20248;-69
2021/05/12 06:11:29;;;;;;;10.23;5.10;;;;;;;12.19;70.48;96259.31;5068864;28;20186;-70
2021/05/12 06:13:55;;;;;;;9.13;4.13;;;;;;;12.20;70.96;96260.94;5068635;28;20866;-70
2021/05/12 06:16:21;;;;;;;14.60;4.67;;;;;;;12.38;70.50;96263.16;5084833;28;20202;-70
2021/05/12 06:18:47;;;;;;;16.93;4.67;;;;;;;11.87;71.25;96262.16;5094979;28;20186;-70
2021/05/12 06:21:13;;;;;;;4.97;4.53;;;;;;;12.17;71.47;96256.84;5095341;28;20766;-70
2021/05/12 06:23:39;;;;;;;7.63;4.73;;;;;;;12.38;70.27;96257.91;5094392;28;20518;-71
2021/05/12 06:26:13;;;;;;;7.60;5.60;;;;;;;12.21;70.09;96259.94;5092425;28;20493;-70
2021/05/12 06:28:40;;;;;;;7.87;4.37;;;;;;;11.88;70.44;96261.16;5081312;28;20492;-69
2021/05/12 06:31:09;;;;;;;6.07;4.00;;;;;;;12.06;70.04;96268.69;5092640;28;20949;-69
2021/05/12 06:33:35;;;;;;;5.80;4.30;;;;;;;12.39;69.16;96260.31;5093509;28;20525;-69
2021/05/12 06:36:01;;;;;;;19.90;5.50;;;;;;;12.52;69.40;96262.28;5094957;28;20825;-70
2021/05/12 06:38:27;;;;;;;9.53;4.80;;;;;;;12.28;69.50;96263.44;5078533;28;20424;-70
2021/05/12 06:40:52;;;;;;;13.73;6.97;;;;;;;12.35;69.91;96266.94;5066900;28;20277;-69
2021/05/12 06:43:18;;;;;;;8.00;4.70;;;;;;;12.16;69.88;96262.31;5072654;28;20435;-68
2021/05/12 06:45:44;;;;;;;6.93;4.23;;;;;;;11.95;70.30;96262.03;5075355;28;20201;-69
2021/05/12 06:48:10;;;;;;;10.90;4.97;;;;;;;11.94;70.49;96268.28;5071056;28;20626;-69
2021/05/12 06:50:35;;;;;;;9.93;5.40;;;;;;;12.18;69.95;96260.31;5095454;28;20185;-71
2021/05/12 06:53:01;;;;;;;6.43;3.70;;;;;;;12.22;70.24;96259.75;5094900;28;20562;-70
2021/05/12 06:55:27;;;;;;;8.00;4.33;;;;;;;12.29;69.93;96259.81;5094149;28;20484;-70
2021/05/12 06:57:53;;;;;;;4.80;4.33;;;;;;;12.03;69.98;96261.16;5093059;28;20193;-70
2021/05/12 07:00:19;;;;;;;6.03;4.00;;;;;;;11.97;70.78;96256.63;5092694;28;20178;-69
2021/05/12 07:02:45;;;;;;;9.73;4.47;;;;;;;12.11;70.11;96268.91;5090777;28;20514;-69
2021/05/12 07:05:15;;;;;;;4.80;4.40;;;;;;;12.35;68.99;96261.69;5081101;28;20478;-71
2021/05/12 07:07:45;;;;;;;8.13;4.13;;;;;;;12.43;68.83;96264.22;5083461;28;20188;-71
2021/05/12 07:10:11;;;;;;;6.50;3.53;;;;;;;12.46;68.82;96268.28;5085470;28;20493;-70
2021/05/12 07:12:37;;;;;;;5.40;3.80;;;;;;;12.59;68.47;96275.50;5092761;28;20420;-71
2021/05/12 07:15:04;;;;;;;4.90;3.97;;;;;;;12.54;68.93;96278.66;5083277;28;20432;-70
2021/05/12 07:17:30;;;;;;;19.97;8.00;;;;;;;12.55;68.35;96269.78;5092090;28;20559;-71
2021/05/12 07:19:56;;;;;;;8.80;4.50;;;;;;;12.47;69.19;96277.00;5095077;28;20420;-69
2021/05/12 07:22:22;;;;;;;25.43;10.00;;;;;;;12.69;67.87;96283.03;5094136;28;20215;-70
2021/05/12 07:24:49;;;;;;;8.60;5.03;;;;;;;12.44;68.88;96284.25;5093432;28;20534;-72
2021/05/12 07:27:15;;;;;;;5.97;4.43;;;;;;;12.24;69.22;96280.56;5094443;28;20535;-69
2021/05/12 07:29:41;;;;;;;14.33;5.53;;;;;;;12.37;69.25;96280.72;5080921;28;20831;-70
2021/05/12 07:32:06;;;;;;;23.03;8.40;;;;;;;12.46;69.05;96275.38;5093126;28;20431;-70
2021/05/12 07:34:32;;;;;;;17.57;6.20;;;;;;;12.49;69.34;96275.78;5092873;28;20649;-71
2021/05/12 07:36:58;;;;;;;37.37;12.47;;;;;;;12.20;70.99;96272.25;5093589;28;20201;-71
2021/05/12 07:39:23;;;;;;;115.80;32.23;;;;;;;12.46;70.37;96267.47;5089895;28;20181;-69
2021/05/12 07:41:51;;;;;;;44.20;15.60;;;;;;;12.14;70.91;96263.31;5089812;28;20699;-71
2021/05/12 07:44:17;;;;;;;8.60;5.50;;;;;;;12.07;72.48;96256.34;5090101;28;20185;-72
2021/05/12 07:46:43;;;;;;;46.27;15.73;;;;;;;11.91;72.81;96259.97;5085953;28;20532;-74
2021/05/12 07:49:08;;;;;;;12.40;5.40;;;;;;;11.74;73.71;96247.03;5086365;28;20228;-71
2021/05/12 07:51:34;;;;;;;20.17;7.60;;;;;;;11.79;73.64;96249.94;5095916;28;20444;-73
2021/05/12 07:54:00;;;;;;;9.23;5.83;;;;;;;11.87;73.73;96250.81;5074888;28;20201;-71
2021/05/12 07:56:25;;;;;;;89.40;20.80;;;;;;;11.72;74.06;96243.78;5094131;28;20229;-71
2021/05/12 07:58:51;;;;;;;28.07;9.47;;;;;;;11.84;74.01;96252.81;5094000;28;20177;-71
2021/05/12 08:01:22;;;;;;;9.00;4.50;;;;;;;11.98;73.34;96247.75;5081783;28;20559;-72
2021/05/12 08:03:48;;;;;;;30.40;10.50;;;;;;;11.99;73.38;96249.38;5088617;28;20181;-70
2021/05/12 08:06:14;;;;;;;30.90;8.90;;;;;;;11.98;74.27;96250.38;5076349;28;20496;-71
2021/05/12 08:08:39;;;;;;;16.33;6.63;;;;;;;11.79;73.69;96249.94;5092844;28;20679;-71
2021/05/12 08:11:05;;;;;;;6.63;4.80;;;;;;;12.10;73.13;96241.03;5092947;28;20213;-71
2021/05/12 08:13:32;;;;;;;90.63;20.20;;;;;;;12.11;73.48;96247.09;5092419;28;20261;-70
2021/05/12 08:15:58;;;;;;;18.80;7.53;;;;;;;12.16;73.42;96251.81;5083746;28;20627;-70
2021/05/12 08:18:24;;;;;;;14.83;6.20;;;;;;;12.33;72.85;96255.00;5093668;28;20427;-70
2021/05/12 08:20:52;;;;;;;8.20;5.20;;;;;;;11.96;73.74;96249.75;5083861;28;20452;-71
2021/05/12 08:23:18;;;;;;;5.93;4.90;;;;;;;12.07;74.47;96254.53;5088250;28;20426;-70
2021/05/12 08:25:45;;;;;;;18.17;6.80;;;;;;;12.08;74.67;96250.94;5088622;28;20451;-70
2021/05/12 08:28:11;;;;;;;6.10;5.10;;;;;;;12.21;73.17;96249.44;5087468;28;20433;-70
2021/05/12 08:30:38;;;;;;;14.67;5.90;;;;;;;12.57;72.29;96259.09;5092340;28;20435;-71
2021/05/12 08:33:04;;;;;;;59.03;16.50;;;;;;;12.45;71.91;96250.88;5093146;28;20949;-68
2021/05/12 08:35:30;;;;;;;78.53;22.73;;;;;;;12.53;71.98;96255.22;5058229;28;20450;-71
2021/05/12 08:37:55;;;;;;;61.87;17.37;;;;;;;12.66;71.33;96250.06;5086620;28;20780;-72
2021/05/12 08:40:22;;;;;;;75.17;19.60;;;;;;;12.52;71.60;96248.31;5075301;28;20619;-70
2021/05/12 08:42:50;;;;;;;26.00;9.03;;;;;;;12.53;71.45;96260.47;5088470;28;20500;-72
2021/05/12 08:45:17;;;;;;;61.33;17.57;;;;;;;12.47;71.71;96255.97;5076511;28;20535;-71
2021/05/12 08:47:44;;;;;;;67.83;21.40;;;;;;;12.36;70.96;96254.63;5070086;28;20428;-70
2021/05/12 08:50:10;;;;;;;19.20;6.87;;;;;;;12.03;71.20;96261.16;5092178;28;20539;-70
2021/05/12 08:52:37;;;;;;;15.50;5.70;;;;;;;12.31;70.43;96252.56;5093863;28;20949;-71
2021/05/12 08:55:04;;;;;;;24.47;7.13;;;;;;;12.49;69.93;96248.69;5092922;28;20500;-71
2021/05/12 08:57:30;;;;;;;11.50;3.30;;;;;;;12.46;69.51;96243.84;5095279;28;20427;-72
2021/05/12 08:59:56;;;;;;;7.60;4.00;;;;;;;12.37;69.87;96240.50;5093010;28;20874;-71
2021/05/12 09:02:21;;;;;;;5.37;3.40;;;;;;;12.44;69.08;96251.88;5092724;28;20186;-72
2021/05/12 09:04:48;;;;;;;4.43;2.93;;;;;;;12.16;68.99;96254.44;5089428;28;20178;-71
2021/05/12 09:07:14;;;;;;;9.67;3.70;;;;;;;12.18;69.31;96252.44;5095517;28;20618;-71
2021/05/12 09:09:40;;;;;;;7.53;3.80;;;;;;;12.34;69.47;96251.38;5094641;28;20530;-71
2021/05/12 09:12:05;;;;;;;6.60;4.30;;;;;;;12.00;69.89;96252.84;5085033;28;20780;-70
2021/05/12 09:14:34;;;;;;;8.70;3.10;;;;;;;12.23;69.28;96245.63;5092269;28;20424;-73
2021/05/12 09:17:00;;;;;;;4.90;3.30;;;;;;;12.11;69.28;96247.91;5088399;28;20285;-73
2021/05/12 09:19:27;;;;;;;6.33;3.30;;;;;;;12.41;68.14;96258.34;5097272;28;20495;-70
2021/05/12 09:21:58;;;;;;;11.40;3.97;;;;;;;12.54;68.42;96243.69;5095453;28;20420;-71
2021/05/12 09:24:23;;;;;;;4.83;3.37;;;;;;;12.58;67.99;96250.22;5068820;28;20413;-71
2021/05/12 09:26:52;;;;;;;6.23;3.50;;;;;;;12.38;68.57;96250.00;5083337;28;20499;-70
2021/05/12 09:29:25;;;;;;;8.67;3.40;;;;;;;12.79;67.57;96259.88;5087135;28;20341;-70
2021/05/12 09:31:52;;;;;;;3.60;3.30;;;;;;;12.52;67.98;96256.22;5091047;28;20451;-70
2021/05/12 09:34:18;;;;;;;6.33;3.20;;;;;;;12.83;67.48;96261.13;5089807;28;20428;-72
2021/05/12 09:36:43;;;;;;;10.60;3.83;;;;;;;12.75;67.71;96256.81;5090806;28;20448;-70
2021/05/12 09:39:12;;;;;;;10.37;4.30;;;;;;;12.81;68.32;96259.69;5091700;28;20189;-69
2021/05/12 09:41:39;;;;;;;5.67;3.40;;;;;;;12.89;67.76;96256.94;5092222;28;20182;-70
2021/05/12 09:44:07;;;;;;;7.13;3.93;;;;;;;13.06;67.46;96260.91;5090629;28;21002;-73
2021/05/12 09:46:42;;;;;;;7.67;3.80;;;;;;;13.23;66.82;96255.38;5077369;28;20437;-72
2021/05/12 09:49:13;;;;;;;13.10;3.87;;;;;;;12.97;67.61;96248.94;5089605;28;20991;-70
2021/05/12 09:51:42;;;;;;;6.37;3.90;;;;;;;13.13;66.43;96254.88;5090326;28;20510;-69
2021/05/12 09:54:11;;;;;;;9.90;4.13;;;;;;;13.19;66.22;96254.13;5089502;28;20495;-70
2021/05/12 09:56:41;;;;;;;6.60;3.23;;;;;;;13.16;66.34;96250.06;5091822;28;20471;-70
2021/05/12 09:59:27;;;;;;;4.90;4.03;;;;;;;13.57;65.54;96253.78;5090160;28;20929;-70
2021/05/12 10:01:54;;;;;;;5.10;3.60;;;;;;;13.60;64.48;96249.94;5090661;28;20443;-72
2021/05/12 10:04:41;;;;;;;7.10;3.90;;;;;;;13.82;64.70;96234.84;5082771;28;20420;-70
2021/05/12 10:07:23;;;;;;;7.67;4.50;;;;;;;13.80;64.32;96239.50;5091443;28;20447;-69
2021/05/12 10:09:51;;;;;;;5.63;3.40;;;;;;;13.47;64.80;96246.22;5090284;28;20546;-72
2021/05/12 10:12:26;;;;;;;11.93;3.83;;;;;;;12.96;66.02;96251.72;5082528;28;20902;-70
2021/05/12 10:14:55;;;;;;;10.20;4.33;;;;;;;13.19;65.78;96238.34;5083211;28;20834;-71
2021/05/12 10:17:20;;;;;;;9.70;4.17;;;;;;;13.48;64.70;96236.53;5073067;28;20495;-73
2021/05/12 10:19:47;;;;;;;5.40;3.90;;;;;;;13.51;64.83;96244.00;5091509;28;20890;-71
2021/05/12 10:22:14;;;;;;;7.73;4.03;;;;;;;13.50;63.56;96239.75;5086630;28;20272;-71
2021/05/12 10:24:42;;;;;;;7.43;4.60;;;;;;;13.87;63.04;96239.53;5087228;28;20431;-71
2021/05/12 10:27:10;;;;;;;6.47;4.23;;;;;;;13.85;63.17;96233.66;5091590;28;20546;-70
2021/05/12 10:29:37;;;;;;;5.37;3.57;;;;;;;13.70;63.22;96231.97;5067413;28;20988;-71
2021/05/12 10:32:25;;;;;;;4.37;3.60;;;;;;;13.50;64.09;96242.38;5090072;28;20419;-71
2021/05/12 10:35:10;;;;;;;12.87;4.00;;;;;;;13.44;63.92;96245.81;5094405;28;20419;-69
2021/05/12 10:37:54;;;;;;;6.60;3.27;;;;;;;13.63;62.94;96233.75;5082021;28;20431;-71
2021/05/12 10:40:27;;;;;;;7.00;3.43;;;;;;;13.47;63.54;96240.16;5093890;28;20430;-71
2021/05/12 10:43:16;;;;;;;4.60;3.07;;;;;;;13.25;63.63;96242.81;5088126;28;20416;-70
2021/05/12 10:45:48;;;;;;;5.70;3.10;;;;;;;13.61;63.05;96228.66;5077207;28;20439;-71
2021/05/12 10:48:50;;;;;;;4.60;3.33;;;;;;;13.82;62.41;96237.50;5084217;28;20415;-71
2021/05/12 10:51:26;;;;;;;5.67;3.17;;;;;;;14.18;61.04;96232.94;5095368;28;21078;-70
2021/05/12 10:54:03;;;;;;;12.30;3.33;;;;;;;13.41;62.66;96236.50;5075865;28;20791;-71
2021/05/12 10:56:35;;;;;;;7.03;3.20;;;;;;;13.66;61.07;96234.19;5076765;28;20504;-73
2021/05/12 10:59:06;;;;;;;6.23;3.50;;;;;;;13.16;62.17;96231.66;5086572;28;20423;-71
2021/05/12 11:01:42;;;;;;;8.87;3.70;;;;;;;13.85;61.28;96223.94;5085694;28;20424;-72
2021/05/12 11:04:10;;;;;;;5.33;3.10;;;;;;;13.74;61.05;96237.63;5082786;28;20466;-71
2021/05/12 11:06:35;;;;;;;6.97;3.00;;;;;;;13.90;60.89;96224.13;5093347;28;20440;-72
2021/05/12 11:09:08;;;;;;;4.93;2.50;;;;;;;14.29;59.14;96224.47;5094005;28;20619;-70
2021/05/12 11:11:52;;;;;;;7.70;2.60;;;;;;;13.91;59.96;96214.44;5088939;28;20205;-72
2021/05/12 11:14:25;;;;;;;5.90;2.70;;;;;;;14.25;58.68;96213.50;5086373;28;20434;-70
2021/05/12 11:17:17;;;;;;;6.43;3.40;;;;;;;14.10;58.71;96210.25;5087290;28;20499;-71
2021/05/12 11:19:45;;;;;;;4.07;2.77;;;;;;;14.50;57.98;96207.66;5086957;28;20465;-71
2021/05/12 11:22:40;;;;;;;8.07;2.77;;;;;;;14.64;57.53;96205.03;5088225;28;20436;-70
2021/05/12 11:33:21;;;;;;;6.27;3.00;;;;;;;14.50;56.97;96207.66;5077760;28;20791;-70
2021/05/12 11:35:50;;;;;;;5.53;2.57;;;;;;;14.72;56.81;96199.59;5086929;28;20880;-71
2021/05/12 11:38:17;;;;;;;5.80;2.30;;;;;;;14.24;57.12;96206.59;5094335;28;20576;-72
2021/05/12 11:41:07;;;;;;;3.80;2.23;;;;;;;14.51;57.28;96203.22;5095504;28;20449;-70